sensor_id;sensor_type;location;lat;lon;timestamp;P1;durP1;ratioP1;P2;durP2;ratioP2
43640;SDS011;72791;52.546;13.570;2024-02-04T00:00:44;13.05;;;3.38;;
43640;SDS011;72791;52.546;13.570;2024-02-04T00:03:11;7.25;;;2.20;;
43640;SDS011;72791;52.546;13.570;2024-02-04T00:05:36;7.55;;;2.17;;
43640;SDS011;72791;52.546;13.570;2024-02-04T00:08:02;10.88;;;2.42;;
43640;SDS011;72791;52.546;13.570;2024-02-04T00:10:28;7.97;;;2.47;;
43640;SDS011;72791;52.546;13.570;2024-02-04T00:12:54;8.80;;;2.55;;
43640;SDS011;72791;52.546;13.570;2024-02-04T00:15:20;12.55;;;2.72;;
43640;SDS011;72791;52.546;13.570;2024-02-04T00:17:46;12.23;;;2.88;;
43640;SDS011;72791;52.546;13.570;2024-02-04T00:20:11;9.77;;;2.45;;
43640;SDS011;72791;52.546;13.570;2024-02-04T00:22:37;7.38;;;2.83;;
43640;SDS011;72791;52.546;13.570;2024-02-04T00:25:03;9.90;;;2.53;;
43640;SDS011;72791;52.546;13.570;2024-02-04T00:27:36;6.38;;;2.08;;
43640;SDS011;72791;52.546;13.570;2024-02-04T00:30:05;8.63;;;2.00;;
43640;SDS011;72791;52.546;13.570;2024-02-04T00:32:31;9.50;;;3.20;;
43640;SDS011;72791;52.546;13.570;2024-02-04T00:34:57;7.90;;;2.00;;
43640;SDS011;72791;52.546;13.570;2024-02-04T00:37:22;13.07;;;2.10;;
43640;SDS011;72791;52.546;13.570;2024-02-04T00:39:48;11.07;;;3.03;;
43640;SDS011;72791;52.546;13.570;2024-02-04T00:42:14;9.02;;;2.33;;
43640;SDS011;72791;52.546;13.570;2024-02-04T00:44:39;11.70;;;2.13;;
43640;SDS011;72791;52.546;13.570;2024-02-04T00:47:05;8.07;;;2.25;;
43640;SDS011;72791;52.546;13.570;2024-02-04T00:49:31;13.43;;;2.95;;
43640;SDS011;72791;52.546;13.570;2024-02-04T00:51:57;7.57;;;1.80;;
43640;SDS011;72791;52.546;13.570;2024-02-04T00:54:23;10.30;;;2.38;;
43640;SDS011;72791;52.546;13.570;2024-02-04T00:56:49;8.25;;;2.15;;
43640;SDS011;72791;52.546;13.570;2024-02-04T00:59:15;8.38;;;3.40;;
43640;SDS011;72791;52.546;13.570;2024-02-04T01:01:41;13.07;;;3.40;;
43640;SDS011;72791;52.546;13.570;2024-02-04T01:04:08;9.65;;;2.22;;
43640;SDS011;72791;52.546;13.570;2024-02-04T01:06:33;16.45;;;4.43;;
43640;SDS011;72791;52.546;13.570;2024-02-04T01:08:59;10.27;;;2.30;;
43640;SDS011;72791;52.546;13.570;2024-02-04T01:11:25;8.80;;;2.08;;
43640;SDS011;72791;52.546;13.570;2024-02-04T01:13:51;12.73;;;3.13;;
43640;SDS011;72791;52.546;13.570;2024-02-04T01:16:18;13.32;;;2.05;;
43640;SDS011;72791;52.546;13.570;2024-02-04T01:18:45;10.13;;;2.30;;
43640;SDS011;72791;52.546;13.570;2024-02-04T01:21:11;11.65;;;2.08;;
43640;SDS011;72791;52.546;13.570;2024-02-04T01:23:36;6.65;;;2.00;;
43640;SDS011;72791;52.546;13.570;2024-02-04T01:26:04;6.07;;;1.58;;
43640;SDS011;72791;52.546;13.570;2024-02-04T01:28:33;7.65;;;2.00;;
43640;SDS011;72791;52.546;13.570;2024-02-04T01:31:00;11.98;;;3.38;;
43640;SDS011;72791;52.546;13.570;2024-02-04T01:33:25;12.90;;;2.03;;
43640;SDS011;72791;52.546;13.570;2024-02-04T01:35:52;8.15;;;2.00;;
43640;SDS011;72791;52.546;13.570;2024-02-04T01:38:18;13.68;;;3.38;;
43640;SDS011;72791;52.546;13.570;2024-02-04T01:40:44;10.10;;;2.00;;
43640;SDS011;72791;52.546;13.570;2024-02-04T01:43:11;13.00;;;2.75;;
43640;SDS011;72791;52.546;13.570;2024-02-04T01:45:37;15.68;;;3.72;;
43640;SDS011;72791;52.546;13.570;2024-02-04T01:48:03;8.98;;;1.98;;
43640;SDS011;72791;52.546;13.570;2024-02-04T01:50:30;8.07;;;2.05;;
43640;SDS011;72791;52.546;13.570;2024-02-04T01:52:58;11.55;;;1.98;;
43640;SDS011;72791;52.546;13.570;2024-02-04T01:55:25;10.80;;;2.28;;
43640;SDS011;72791;52.546;13.570;2024-02-04T01:57:50;10.05;;;2.35;;
43640;SDS011;72791;52.546;13.570;2024-02-04T02:00:16;11.75;;;3.38;;
43640;SDS011;72791;52.546;13.570;2024-02-04T02:02:43;15.57;;;3.45;;
43640;SDS011;72791;52.546;13.570;2024-02-04T02:05:11;10.27;;;2.15;;
43640;SDS011;72791;52.546;13.570;2024-02-04T02:07:37;13.43;;;2.35;;
43640;SDS011;72791;52.546;13.570;2024-02-04T02:10:05;12.27;;;2.42;;
43640;SDS011;72791;52.546;13.570;2024-02-04T02:12:36;12.82;;;2.40;;
43640;SDS011;72791;52.546;13.570;2024-02-04T02:15:18;12.85;;;4.07;;
43640;SDS011;72791;52.546;13.570;2024-02-04T02:18:00;8.25;;;2.22;;
43640;SDS011;72791;52.546;13.570;2024-02-04T02:20:57;17.35;;;2.53;;
43640;SDS011;72791;52.546;13.570;2024-02-04T02:23:31;11.17;;;2.80;;
43640;SDS011;72791;52.546;13.570;2024-02-04T02:26:02;10.85;;;2.63;;
43640;SDS011;72791;52.546;13.570;2024-02-04T02:28:29;14.18;;;2.65;;
43640;SDS011;72791;52.546;13.570;2024-02-04T02:30:55;13.65;;;3.10;;
43640;SDS011;72791;52.546;13.570;2024-02-04T02:33:22;9.80;;;2.78;;
43640;SDS011;72791;52.546;13.570;2024-02-04T02:35:49;11.95;;;2.33;;
43640;SDS011;72791;52.546;13.570;2024-02-04T02:38:25;7.68;;;2.38;;
43640;SDS011;72791;52.546;13.570;2024-02-04T02:41:02;12.30;;;2.85;;
43640;SDS011;72791;52.546;13.570;2024-02-04T02:43:31;8.60;;;4.05;;
43640;SDS011;72791;52.546;13.570;2024-02-04T02:45:58;12.25;;;2.13;;
43640;SDS011;72791;52.546;13.570;2024-02-04T02:48:25;10.50;;;2.53;;
43640;SDS011;72791;52.546;13.570;2024-02-04T02:50:51;12.00;;;2.63;;
43640;SDS011;72791;52.546;13.570;2024-02-04T02:53:18;9.25;;;2.38;;
43640;SDS011;72791;52.546;13.570;2024-02-04T02:55:45;10.10;;;2.63;;
43640;SDS011;72791;52.546;13.570;2024-02-04T02:58:14;10.13;;;2.40;;
43640;SDS011;72791;52.546;13.570;2024-02-04T03:00:45;8.07;;;2.35;;
43640;SDS011;72791;52.546;13.570;2024-02-04T03:03:14;11.15;;;2.60;;
43640;SDS011;72791;52.546;13.570;2024-02-04T03:05:40;9.48;;;3.22;;
43640;SDS011;72791;52.546;13.570;2024-02-04T03:08:05;7.57;;;2.35;;
43640;SDS011;72791;52.546;13.570;2024-02-04T03:10:31;10.05;;;2.80;;
43640;SDS011;72791;52.546;13.570;2024-02-04T03:12:58;11.20;;;2.85;;
43640;SDS011;72791;52.546;13.570;2024-02-04T03:15:23;13.02;;;2.50;;
43640;SDS011;72791;52.546;13.570;2024-02-04T03:17:49;7.88;;;2.83;;
43640;SDS011;72791;52.546;13.570;2024-02-04T03:20:15;10.38;;;2.35;;
43640;SDS011;72791;52.546;13.570;2024-02-04T03:22:41;9.43;;;2.45;;
43640;SDS011;72791;52.546;13.570;2024-02-04T03:25:06;12.15;;;2.58;;
43640;SDS011;72791;52.546;13.570;2024-02-04T03:27:32;8.65;;;1.90;;
43640;SDS011;72791;52.546;13.570;2024-02-04T03:29:58;10.70;;;3.33;;
43640;SDS011;72791;52.546;13.570;2024-02-04T03:32:24;10.70;;;2.30;;
43640;SDS011;72791;52.546;13.570;2024-02-04T03:34:50;12.88;;;2.78;;
43640;SDS011;72791;52.546;13.570;2024-02-04T03:37:15;7.72;;;2.60;;
43640;SDS011;72791;52.546;13.570;2024-02-04T03:39:41;6.05;;;2.88;;
43640;SDS011;72791;52.546;13.570;2024-02-04T03:42:08;13.15;;;2.85;;
43640;SDS011;72791;52.546;13.570;2024-02-04T03:44:35;9.35;;;3.03;;
43640;SDS011;72791;52.546;13.570;2024-02-04T03:47:01;10.48;;;3.13;;
43640;SDS011;72791;52.546;13.570;2024-02-04T03:49:28;8.55;;;3.03;;
43640;SDS011;72791;52.546;13.570;2024-02-04T03:51:54;8.82;;;3.33;;
43640;SDS011;72791;52.546;13.570;2024-02-04T03:54:19;11.63;;;3.08;;
43640;SDS011;72791;52.546;13.570;2024-02-04T03:56:45;15.85;;;3.05;;
43640;SDS011;72791;52.546;13.570;2024-02-04T03:59:11;8.50;;;3.20;;
43640;SDS011;72791;52.546;13.570;2024-02-04T04:01:38;11.32;;;3.80;;
43640;SDS011;72791;52.546;13.570;2024-02-04T04:04:07;7.20;;;2.30;;
43640;SDS011;72791;52.546;13.570;2024-02-04T04:06:32;9.48;;;3.78;;
43640;SDS011;72791;52.546;13.570;2024-02-04T04:08:58;7.82;;;2.85;;
43640;SDS011;72791;52.546;13.570;2024-02-04T04:11:26;8.13;;;2.78;;
43640;SDS011;72791;52.546;13.570;2024-02-04T04:13:53;11.63;;;2.85;;
43640;SDS011;72791;52.546;13.570;2024-02-04T04:16:21;10.82;;;3.28;;
43640;SDS011;72791;52.546;13.570;2024-02-04T04:18:47;16.90;;;3.00;;
43640;SDS011;72791;52.546;13.570;2024-02-04T04:21:13;7.95;;;3.00;;
43640;SDS011;72791;52.546;13.570;2024-02-04T04:23:39;9.77;;;3.03;;
43640;SDS011;72791;52.546;13.570;2024-02-04T04:26:04;11.10;;;3.05;;
43640;SDS011;72791;52.546;13.570;2024-02-04T04:28:30;11.63;;;3.10;;
43640;SDS011;72791;52.546;13.570;2024-02-04T04:30:56;5.55;;;2.85;;
43640;SDS011;72791;52.546;13.570;2024-02-04T04:33:23;10.40;;;2.60;;
43640;SDS011;72791;52.546;13.570;2024-02-04T04:35:49;10.27;;;2.88;;
43640;SDS011;72791;52.546;13.570;2024-02-04T04:38:15;8.40;;;3.13;;
43640;SDS011;72791;52.546;13.570;2024-02-04T04:40:40;7.32;;;3.03;;
43640;SDS011;72791;52.546;13.570;2024-02-04T04:43:06;13.20;;;3.05;;
43640;SDS011;72791;52.546;13.570;2024-02-04T04:45:32;9.90;;;2.67;;
43640;SDS011;72791;52.546;13.570;2024-02-04T04:47:57;10.25;;;2.50;;
43640;SDS011;72791;52.546;13.570;2024-02-04T04:50:25;6.60;;;2.17;;
43640;SDS011;72791;52.546;13.570;2024-02-04T04:52:50;13.98;;;3.63;;
43640;SDS011;72791;52.546;13.570;2024-02-04T04:55:16;5.50;;;2.70;;
43640;SDS011;72791;52.546;13.570;2024-02-04T04:57:42;6.78;;;2.42;;
43640;SDS011;72791;52.546;13.570;2024-02-04T05:00:10;7.90;;;2.65;;
43640;SDS011;72791;52.546;13.570;2024-02-04T05:02:37;9.15;;;2.55;;
43640;SDS011;72791;52.546;13.570;2024-02-04T05:05:05;8.68;;;2.30;;
43640;SDS011;72791;52.546;13.570;2024-02-04T05:07:31;10.10;;;2.78;;
43640;SDS011;72791;52.546;13.570;2024-02-04T05:09:59;10.35;;;3.30;;
43640;SDS011;72791;52.546;13.570;2024-02-04T05:12:26;10.07;;;2.90;;
43640;SDS011;72791;52.546;13.570;2024-02-04T05:14:51;6.93;;;4.07;;
43640;SDS011;72791;52.546;13.570;2024-02-04T05:17:18;4.80;;;2.08;;
43640;SDS011;72791;52.546;13.570;2024-02-04T05:19:44;8.60;;;2.42;;
43640;SDS011;72791;52.546;13.570;2024-02-04T05:22:10;7.40;;;2.63;;
43640;SDS011;72791;52.546;13.570;2024-02-04T05:24:35;9.05;;;2.10;;
43640;SDS011;72791;52.546;13.570;2024-02-04T05:27:01;10.77;;;2.20;;
43640;SDS011;72791;52.546;13.570;2024-02-04T05:29:27;14.63;;;2.38;;
43640;SDS011;72791;52.546;13.570;2024-02-04T05:31:52;9.73;;;2.13;;
43640;SDS011;72791;52.546;13.570;2024-02-04T05:34:18;11.05;;;2.22;;
43640;SDS011;72791;52.546;13.570;2024-02-04T05:36:45;9.20;;;1.98;;
43640;SDS011;72791;52.546;13.570;2024-02-04T05:41:37;5.93;;;2.20;;
43640;SDS011;72791;52.546;13.570;2024-02-04T05:44:03;5.85;;;1.67;;
43640;SDS011;72791;52.546;13.570;2024-02-04T05:46:31;7.85;;;2.25;;
43640;SDS011;72791;52.546;13.570;2024-02-04T05:48:59;8.27;;;2.05;;
43640;SDS011;72791;52.546;13.570;2024-02-04T05:51:27;8.05;;;2.30;;
43640;SDS011;72791;52.546;13.570;2024-02-04T05:53:54;7.55;;;2.65;;
43640;SDS011;72791;52.546;13.570;2024-02-04T05:56:20;6.57;;;2.70;;
43640;SDS011;72791;52.546;13.570;2024-02-04T05:58:46;11.43;;;2.20;;
43640;SDS011;72791;52.546;13.570;2024-02-04T06:01:15;5.45;;;2.35;;
43640;SDS011;72791;52.546;13.570;2024-02-04T06:03:42;6.80;;;1.92;;
43640;SDS011;72791;52.546;13.570;2024-02-04T06:06:08;9.57;;;2.40;;
43640;SDS011;72791;52.546;13.570;2024-02-04T06:08:39;5.15;;;1.77;;
43640;SDS011;72791;52.546;13.570;2024-02-04T06:11:04;6.13;;;1.85;;
43640;SDS011;72791;52.546;13.570;2024-02-04T06:13:34;6.20;;;2.10;;
43640;SDS011;72791;52.546;13.570;2024-02-04T06:16:00;3.50;;;1.70;;
43640;SDS011;72791;52.546;13.570;2024-02-04T06:18:27;6.70;;;2.00;;
43640;SDS011;72791;52.546;13.570;2024-02-04T06:20:52;9.40;;;2.17;;
43640;SDS011;72791;52.546;13.570;2024-02-04T06:23:19;11.02;;;2.33;;
43640;SDS011;72791;52.546;13.570;2024-02-04T06:25:46;7.60;;;2.55;;
43640;SDS011;72791;52.546;13.570;2024-02-04T06:28:12;8.02;;;2.30;;
43640;SDS011;72791;52.546;13.570;2024-02-04T06:30:38;8.43;;;2.35;;
43640;SDS011;72791;52.546;13.570;2024-02-04T06:33:03;7.43;;;2.22;;
43640;SDS011;72791;52.546;13.570;2024-02-04T06:35:31;12.02;;;3.00;;
43640;SDS011;72791;52.546;13.570;2024-02-04T06:37:58;5.72;;;2.22;;
43640;SDS011;72791;52.546;13.570;2024-02-04T06:40:23;7.28;;;2.42;;
43640;SDS011;72791;52.546;13.570;2024-02-04T06:42:50;9.35;;;2.50;;
43640;SDS011;72791;52.546;13.570;2024-02-04T06:45:17;6.43;;;2.47;;
43640;SDS011;72791;52.546;13.570;2024-02-04T06:47:43;7.88;;;2.88;;
43640;SDS011;72791;52.546;13.570;2024-02-04T06:50:14;5.75;;;2.38;;
43640;SDS011;72791;52.546;13.570;2024-02-04T06:52:42;9.93;;;2.78;;
43640;SDS011;72791;52.546;13.570;2024-02-04T06:55:09;8.18;;;2.67;;
43640;SDS011;72791;52.546;13.570;2024-02-04T06:57:35;12.23;;;2.95;;
43640;SDS011;72791;52.546;13.570;2024-02-04T07:00:04;7.88;;;2.83;;
43640;SDS011;72791;52.546;13.570;2024-02-04T07:02:33;8.88;;;3.47;;
43640;SDS011;72791;52.546;13.570;2024-02-04T07:04:59;8.43;;;3.47;;
43640;SDS011;72791;52.546;13.570;2024-02-04T07:07:25;11.85;;;4.45;;
43640;SDS011;72791;52.546;13.570;2024-02-04T07:09:51;10.13;;;3.47;;
43640;SDS011;72791;52.546;13.570;2024-02-04T07:12:16;7.05;;;3.20;;
43640;SDS011;72791;52.546;13.570;2024-02-04T07:14:42;20.38;;;6.05;;
43640;SDS011;72791;52.546;13.570;2024-02-04T07:17:08;10.80;;;3.67;;
43640;SDS011;72791;52.546;13.570;2024-02-04T07:19:34;7.47;;;3.50;;
43640;SDS011;72791;52.546;13.570;2024-02-04T07:22:00;7.60;;;4.38;;
43640;SDS011;72791;52.546;13.570;2024-02-04T07:24:26;12.82;;;4.13;;
43640;SDS011;72791;52.546;13.570;2024-02-04T07:26:52;10.73;;;3.90;;
43640;SDS011;72791;52.546;13.570;2024-02-04T07:29:17;11.27;;;4.90;;
43640;SDS011;72791;52.546;13.570;2024-02-04T07:31:43;15.40;;;4.57;;
43640;SDS011;72791;52.546;13.570;2024-02-04T07:34:09;9.80;;;4.32;;
43640;SDS011;72791;52.546;13.570;2024-02-04T07:36:40;10.13;;;4.05;;
43640;SDS011;72791;52.546;13.570;2024-02-04T07:39:10;12.00;;;3.70;;
43640;SDS011;72791;52.546;13.570;2024-02-04T07:41:36;12.35;;;4.78;;
43640;SDS011;72791;52.546;13.570;2024-02-04T07:44:02;8.98;;;4.60;;
43640;SDS011;72791;52.546;13.570;2024-02-04T07:46:30;8.25;;;4.05;;
43640;SDS011;72791;52.546;13.570;2024-02-04T07:48:56;12.00;;;5.93;;
43640;SDS011;72791;52.546;13.570;2024-02-04T07:51:22;10.57;;;3.83;;
43640;SDS011;72791;52.546;13.570;2024-02-04T07:53:48;11.68;;;4.13;;
43640;SDS011;72791;52.546;13.570;2024-02-04T07:56:14;12.05;;;4.93;;
43640;SDS011;72791;52.546;13.570;2024-02-04T07:58:40;9.00;;;4.95;;
43640;SDS011;72791;52.546;13.570;2024-02-04T08:01:05;9.02;;;4.10;;
43640;SDS011;72791;52.546;13.570;2024-02-04T08:03:31;10.35;;;3.92;;
43640;SDS011;72791;52.546;13.570;2024-02-04T08:05:56;9.52;;;4.45;;
43640;SDS011;72791;52.546;13.570;2024-02-04T08:08:22;9.90;;;5.20;;
43640;SDS011;72791;52.546;13.570;2024-02-04T08:10:48;12.75;;;4.47;;
43640;SDS011;72791;52.546;13.570;2024-02-04T08:13:14;7.13;;;3.83;;
43640;SDS011;72791;52.546;13.570;2024-02-04T08:15:39;11.38;;;4.38;;
43640;SDS011;72791;52.546;13.570;2024-02-04T08:18:05;9.98;;;4.15;;
43640;SDS011;72791;52.546;13.570;2024-02-04T08:20:31;11.23;;;3.97;;
43640;SDS011;72791;52.546;13.570;2024-02-04T08:22:56;10.45;;;3.97;;
43640;SDS011;72791;52.546;13.570;2024-02-04T08:25:22;11.93;;;3.72;;
43640;SDS011;72791;52.546;13.570;2024-02-04T08:27:48;9.82;;;3.97;;
43640;SDS011;72791;52.546;13.570;2024-02-04T08:30:15;10.02;;;3.92;;
43640;SDS011;72791;52.546;13.570;2024-02-04T08:32:42;7.03;;;3.20;;
43640;SDS011;72791;52.546;13.570;2024-02-04T08:35:10;10.13;;;4.13;;
43640;SDS011;72791;52.546;13.570;2024-02-04T08:37:37;9.55;;;3.65;;
43640;SDS011;72791;52.546;13.570;2024-02-04T08:40:05;10.40;;;3.85;;
43640;SDS011;72791;52.546;13.570;2024-02-04T08:42:32;9.82;;;3.72;;
43640;SDS011;72791;52.546;13.570;2024-02-04T08:45:02;16.40;;;4.65;;
43640;SDS011;72791;52.546;13.570;2024-02-04T08:47:28;7.60;;;3.35;;
43640;SDS011;72791;52.546;13.570;2024-02-04T08:49:54;12.93;;;3.10;;
43640;SDS011;72791;52.546;13.570;2024-02-04T08:52:20;15.27;;;4.45;;
43640;SDS011;72791;52.546;13.570;2024-02-04T08:54:46;11.15;;;3.65;;
43640;SDS011;72791;52.546;13.570;2024-02-04T08:57:14;7.65;;;3.85;;
43640;SDS011;72791;52.546;13.570;2024-02-04T08:59:41;9.80;;;4.28;;
43640;SDS011;72791;52.546;13.570;2024-02-04T09:02:08;8.70;;;3.90;;
43640;SDS011;72791;52.546;13.570;2024-02-04T09:04:37;13.45;;;3.15;;
43640;SDS011;72791;52.546;13.570;2024-02-04T09:07:08;7.93;;;2.63;;
43640;SDS011;72791;52.546;13.570;2024-02-04T09:09:37;10.05;;;2.90;;
43640;SDS011;72791;52.546;13.570;2024-02-04T09:12:03;8.88;;;3.20;;
43640;SDS011;72791;52.546;13.570;2024-02-04T09:14:29;9.52;;;3.08;;
43640;SDS011;72791;52.546;13.570;2024-02-04T09:16:54;9.15;;;2.83;;
43640;SDS011;72791;52.546;13.570;2024-02-04T09:19:20;9.32;;;2.20;;
43640;SDS011;72791;52.546;13.570;2024-02-04T09:21:46;8.20;;;3.50;;
43640;SDS011;72791;52.546;13.570;2024-02-04T09:24:13;6.32;;;2.42;;
43640;SDS011;72791;52.546;13.570;2024-02-04T09:26:39;6.28;;;2.15;;
43640;SDS011;72791;52.546;13.570;2024-02-04T09:29:04;11.10;;;2.55;;
43640;SDS011;72791;52.546;13.570;2024-02-04T09:31:31;7.50;;;2.58;;
43640;SDS011;72791;52.546;13.570;2024-02-04T09:33:57;8.77;;;2.30;;
43640;SDS011;72791;52.546;13.570;2024-02-04T09:36:23;11.90;;;2.97;;
43640;SDS011;72791;52.546;13.570;2024-02-04T09:38:50;4.85;;;2.30;;
43640;SDS011;72791;52.546;13.570;2024-02-04T09:41:16;6.05;;;2.35;;
43640;SDS011;72791;52.546;13.570;2024-02-04T09:43:43;5.55;;;2.35;;
43640;SDS011;72791;52.546;13.570;2024-02-04T09:46:12;7.72;;;3.40;;
43640;SDS011;72791;52.546;13.570;2024-02-04T09:48:50;10.60;;;2.40;;
43640;SDS011;72791;52.546;13.570;2024-02-04T09:51:18;10.45;;;3.15;;
43640;SDS011;72791;52.546;13.570;2024-02-04T09:53:44;6.32;;;2.60;;
43640;SDS011;72791;52.546;13.570;2024-02-04T09:56:10;5.78;;;2.20;;
43640;SDS011;72791;52.546;13.570;2024-02-04T09:58:37;10.63;;;2.55;;
43640;SDS011;72791;52.546;13.570;2024-02-04T10:01:06;8.00;;;2.38;;
43640;SDS011;72791;52.546;13.570;2024-02-04T10:03:34;9.07;;;2.47;;
43640;SDS011;72791;52.546;13.570;2024-02-04T10:05:59;6.72;;;1.70;;
43640;SDS011;72791;52.546;13.570;2024-02-04T10:08:25;7.75;;;2.40;;
43640;SDS011;72791;52.546;13.570;2024-02-04T10:10:51;8.55;;;2.53;;
43640;SDS011;72791;52.546;13.570;2024-02-04T10:13:19;7.18;;;2.25;;
43640;SDS011;72791;52.546;13.570;2024-02-04T10:15:44;4.05;;;1.20;;
43640;SDS011;72791;52.546;13.570;2024-02-04T10:18:10;5.93;;;2.22;;
43640;SDS011;72791;52.546;13.570;2024-02-04T10:20:36;10.30;;;2.85;;
43640;SDS011;72791;52.546;13.570;2024-02-04T10:23:01;4.47;;;1.55;;
43640;SDS011;72791;52.546;13.570;2024-02-04T10:25:27;4.53;;;1.92;;
43640;SDS011;72791;52.546;13.570;2024-02-04T10:27:53;4.85;;;1.90;;
43640;SDS011;72791;52.546;13.570;2024-02-04T10:30:19;7.75;;;1.42;;
43640;SDS011;72791;52.546;13.570;2024-02-04T10:32:47;12.38;;;2.17;;
43640;SDS011;72791;52.546;13.570;2024-02-04T10:35:15;4.70;;;1.58;;
43640;SDS011;72791;52.546;13.570;2024-02-04T10:37:44;15.43;;;3.92;;
43640;SDS011;72791;52.546;13.570;2024-02-04T10:40:14;8.13;;;1.65;;
43640;SDS011;72791;52.546;13.570;2024-02-04T10:42:40;5.22;;;1.50;;
43640;SDS011;72791;52.546;13.570;2024-02-04T10:45:08;8.93;;;1.55;;
43640;SDS011;72791;52.546;13.570;2024-02-04T10:47:37;8.00;;;2.70;;
43640;SDS011;72791;52.546;13.570;2024-02-04T10:50:03;3.47;;;1.10;;
43640;SDS011;72791;52.546;13.570;2024-02-04T10:52:32;6.18;;;1.40;;
43640;SDS011;72791;52.546;13.570;2024-02-04T10:55:03;6.07;;;1.42;;
43640;SDS011;72791;52.546;13.570;2024-02-04T10:57:32;11.15;;;1.42;;
43640;SDS011;72791;52.546;13.570;2024-02-04T10:59:59;3.83;;;1.13;;
43640;SDS011;72791;52.546;13.570;2024-02-04T11:02:28;3.17;;;1.60;;
43640;SDS011;72791;52.546;13.570;2024-02-04T11:04:54;7.65;;;1.98;;
43640;SDS011;72791;52.546;13.570;2024-02-04T11:07:20;4.00;;;1.45;;
43640;SDS011;72791;52.546;13.570;2024-02-04T11:09:47;6.20;;;1.52;;
43640;SDS011;72791;52.546;13.570;2024-02-04T11:12:17;6.55;;;1.35;;
43640;SDS011;72791;52.546;13.570;2024-02-04T11:14:47;2.92;;;1.27;;
43640;SDS011;72791;52.546;13.570;2024-02-04T11:17:26;5.55;;;1.67;;
43640;SDS011;72791;52.546;13.570;2024-02-04T11:20:20;4.07;;;1.83;;
43640;SDS011;72791;52.546;13.570;2024-02-04T11:26:08;7.43;;;1.90;;
43640;SDS011;72791;52.546;13.570;2024-02-04T11:28:36;4.78;;;1.00;;
43640;SDS011;72791;52.546;13.570;2024-02-04T11:31:04;11.80;;;1.65;;
43640;SDS011;72791;52.546;13.570;2024-02-04T11:33:38;12.38;;;1.52;;
43640;SDS011;72791;52.546;13.570;2024-02-04T11:36:05;7.47;;;1.30;;
43640;SDS011;72791;52.546;13.570;2024-02-04T11:38:37;4.18;;;1.50;;
43640;SDS011;72791;52.546;13.570;2024-02-04T11:41:04;4.45;;;1.83;;
43640;SDS011;72791;52.546;13.570;2024-02-04T11:43:34;3.80;;;1.23;;
43640;SDS011;72791;52.546;13.570;2024-02-04T11:46:02;4.28;;;1.40;;
43640;SDS011;72791;52.546;13.570;2024-02-04T11:48:30;4.90;;;1.38;;
43640;SDS011;72791;52.546;13.570;2024-02-04T11:50:58;7.55;;;1.60;;
43640;SDS011;72791;52.546;13.570;2024-02-04T11:53:28;7.95;;;1.92;;
43640;SDS011;72791;52.546;13.570;2024-02-04T11:56:00;6.90;;;1.40;;
43640;SDS011;72791;52.546;13.570;2024-02-04T11:58:26;7.07;;;1.55;;
43640;SDS011;72791;52.546;13.570;2024-02-04T12:00:53;3.85;;;1.52;;
43640;SDS011;72791;52.546;13.570;2024-02-04T12:03:34;6.38;;;1.60;;
43640;SDS011;72791;52.546;13.570;2024-02-04T12:06:02;4.50;;;1.75;;
43640;SDS011;72791;52.546;13.570;2024-02-04T12:08:32;3.35;;;1.42;;
43640;SDS011;72791;52.546;13.570;2024-02-04T12:10:59;8.02;;;2.30;;
43640;SDS011;72791;52.546;13.570;2024-02-04T12:13:27;7.50;;;1.50;;
43640;SDS011;72791;52.546;13.570;2024-02-04T12:15:54;6.13;;;1.42;;
43640;SDS011;72791;52.546;13.570;2024-02-04T12:18:20;10.55;;;1.88;;
43640;SDS011;72791;52.546;13.570;2024-02-04T12:20:48;6.68;;;1.73;;
43640;SDS011;72791;52.546;13.570;2024-02-04T12:23:15;5.93;;;1.85;;
43640;SDS011;72791;52.546;13.570;2024-02-04T12:25:42;5.95;;;1.70;;
43640;SDS011;72791;52.546;13.570;2024-02-04T12:28:08;7.03;;;1.33;;
43640;SDS011;72791;52.546;13.570;2024-02-04T12:30:36;3.83;;;1.48;;
43640;SDS011;72791;52.546;13.570;2024-02-04T12:33:02;4.75;;;1.52;;
43640;SDS011;72791;52.546;13.570;2024-02-04T12:35:29;6.57;;;1.80;;
43640;SDS011;72791;52.546;13.570;2024-02-04T12:37:57;2.38;;;1.27;;
43640;SDS011;72791;52.546;13.570;2024-02-04T12:40:27;4.63;;;1.58;;
43640;SDS011;72791;52.546;13.570;2024-02-04T12:43:00;6.03;;;1.73;;
43640;SDS011;72791;52.546;13.570;2024-02-04T12:45:29;5.15;;;1.98;;
43640;SDS011;72791;52.546;13.570;2024-02-04T12:47:55;4.82;;;1.55;;
43640;SDS011;72791;52.546;13.570;2024-02-04T12:50:22;4.72;;;1.40;;
43640;SDS011;72791;52.546;13.570;2024-02-04T12:52:49;6.55;;;2.22;;
43640;SDS011;72791;52.546;13.570;2024-02-04T12:55:40;5.60;;;1.80;;
43640;SDS011;72791;52.546;13.570;2024-02-04T12:58:08;5.80;;;1.55;;
43640;SDS011;72791;52.546;13.570;2024-02-04T13:00:38;6.50;;;1.73;;
43640;SDS011;72791;52.546;13.570;2024-02-04T13:03:05;5.80;;;1.75;;
43640;SDS011;72791;52.546;13.570;2024-02-04T13:05:33;5.70;;;2.53;;
43640;SDS011;72791;52.546;13.570;2024-02-04T13:07:59;6.85;;;1.95;;
43640;SDS011;72791;52.546;13.570;2024-02-04T13:10:27;6.45;;;1.50;;
43640;SDS011;72791;52.546;13.570;2024-02-04T13:13:06;6.35;;;1.52;;
43640;SDS011;72791;52.546;13.570;2024-02-04T13:15:42;5.03;;;1.30;;
43640;SDS011;72791;52.546;13.570;2024-02-04T13:18:09;6.18;;;1.70;;
43640;SDS011;72791;52.546;13.570;2024-02-04T13:20:36;3.65;;;1.50;;
43640;SDS011;72791;52.546;13.570;2024-02-04T13:23:05;6.47;;;1.20;;
43640;SDS011;72791;52.546;13.570;2024-02-04T13:25:31;4.57;;;1.60;;
43640;SDS011;72791;52.546;13.570;2024-02-04T13:27:57;6.25;;;1.50;;
43640;SDS011;72791;52.546;13.570;2024-02-04T13:30:22;5.13;;;1.15;;
43640;SDS011;72791;52.546;13.570;2024-02-04T13:32:48;6.57;;;2.38;;
43640;SDS011;72791;52.546;13.570;2024-02-04T13:35:15;6.03;;;1.75;;
43640;SDS011;72791;52.546;13.570;2024-02-04T13:37:42;7.47;;;1.67;;
43640;SDS011;72791;52.546;13.570;2024-02-04T13:40:16;6.88;;;1.45;;
43640;SDS011;72791;52.546;13.570;2024-02-04T13:42:44;7.47;;;1.40;;
43640;SDS011;72791;52.546;13.570;2024-02-04T13:45:10;13.93;;;1.63;;
43640;SDS011;72791;52.546;13.570;2024-02-04T13:47:40;5.15;;;2.20;;
43640;SDS011;72791;52.546;13.570;2024-02-04T13:50:06;5.15;;;1.40;;
43640;SDS011;72791;52.546;13.570;2024-02-04T13:52:36;7.97;;;1.60;;
43640;SDS011;72791;52.546;13.570;2024-02-04T13:55:04;10.68;;;2.15;;
43640;SDS011;72791;52.546;13.570;2024-02-04T13:57:33;7.40;;;1.73;;
43640;SDS011;72791;52.546;13.570;2024-02-04T13:59:59;6.53;;;1.90;;
43640;SDS011;72791;52.546;13.570;2024-02-04T14:02:26;5.40;;;1.50;;
43640;SDS011;72791;52.546;13.570;2024-02-04T14:04:54;4.30;;;1.50;;
43640;SDS011;72791;52.546;13.570;2024-02-04T14:07:21;5.18;;;1.67;;
43640;SDS011;72791;52.546;13.570;2024-02-04T14:09:46;6.45;;;1.50;;
43640;SDS011;72791;52.546;13.570;2024-02-04T14:12:12;3.60;;;1.20;;
43640;SDS011;72791;52.546;13.570;2024-02-04T14:14:39;8.25;;;2.13;;
43640;SDS011;72791;52.546;13.570;2024-02-04T14:17:05;3.63;;;1.45;;
43640;SDS011;72791;52.546;13.570;2024-02-04T14:19:31;11.15;;;2.20;;
43640;SDS011;72791;52.546;13.570;2024-02-04T14:21:56;9.43;;;1.77;;
43640;SDS011;72791;52.546;13.570;2024-02-04T14:24:27;9.70;;;2.05;;
43640;SDS011;72791;52.546;13.570;2024-02-04T14:26:59;6.55;;;1.90;;
43640;SDS011;72791;52.546;13.570;2024-02-04T14:29:25;5.30;;;1.80;;
43640;SDS011;72791;52.546;13.570;2024-02-04T14:31:52;7.25;;;1.95;;
43640;SDS011;72791;52.546;13.570;2024-02-04T14:34:17;11.63;;;3.10;;
43640;SDS011;72791;52.546;13.570;2024-02-04T14:36:44;5.55;;;1.92;;